sensor_id;sensor_type;location;lat;lon;timestamp;temperature;humidity
68433;DHT22;55412;51.350;17.056;2023-01-29T00:00:02;-0.30;80.70
68433;DHT22;55412;51.350;17.056;2023-01-29T00:02:35;-0.30;80.70
68433;DHT22;55412;51.350;17.056;2023-01-29T00:05:02;-0.30;80.70
68433;DHT22;55412;51.350;17.056;2023-01-29T00:07:30;-0.30;80.70
68433;DHT22;55412;51.350;17.056;2023-01-29T00:09:56;-0.30;80.70
68433;DHT22;55412;51.350;17.056;2023-01-29T00:12:22;-0.30;80.60
68433;DHT22;55412;51.350;17.056;2023-01-29T00:14:48;-0.30;80.60
68433;DHT22;55412;51.350;17.056;2023-01-29T00:17:14;-0.30;80.70
68433;DHT22;55412;51.350;17.056;2023-01-29T00:19:40;-0.30;80.70
68433;DHT22;55412;51.350;17.056;2023-01-29T00:22:06;-0.30;80.60
68433;DHT22;55412;51.350;17.056;2023-01-29T00:24:32;-0.30;80.60
68433;DHT22;55412;51.350;17.056;2023-01-29T00:26:58;-0.30;80.60
68433;DHT22;55412;51.350;17.056;2023-01-29T00:29:24;-0.30;80.60
68433;DHT22;55412;51.350;17.056;2023-01-29T00:31:50;-0.30;80.60
68433;DHT22;55412;51.350;17.056;2023-01-29T00:34:16;-0.30;80.50
68433;DHT22;55412;51.350;17.056;2023-01-29T00:36:42;-0.30;80.60
68433;DHT22;55412;51.350;17.056;2023-01-29T00:39:10;-0.30;80.60
68433;DHT22;55412;51.350;17.056;2023-01-29T00:41:36;-0.30;80.50
68433;DHT22;55412;51.350;17.056;2023-01-29T00:44:21;-0.30;80.50
68433;DHT22;55412;51.350;17.056;2023-01-29T00:47:06;-0.30;80.40
68433;DHT22;55412;51.350;17.056;2023-01-29T00:49:51;-0.30;80.50
68433;DHT22;55412;51.350;17.056;2023-01-29T00:52:17;-0.30;80.50
68433;DHT22;55412;51.350;17.056;2023-01-29T00:54:49;-0.30;80.60
68433;DHT22;55412;51.350;17.056;2023-01-29T00:57:19;-0.40;80.50
68433;DHT22;55412;51.350;17.056;2023-01-29T00:59:45;-0.30;80.50
68433;DHT22;55412;51.350;17.056;2023-01-29T01:02:11;-0.40;80.50
68433;DHT22;55412;51.350;17.056;2023-01-29T01:04:56;-0.40;80.40
68433;DHT22;55412;51.350;17.056;2023-01-29T01:07:22;-0.40;80.40
68433;DHT22;55412;51.350;17.056;2023-01-29T01:09:48;-0.40;80.40
68433;DHT22;55412;51.350;17.056;2023-01-29T01:12:33;-0.40;80.40
68433;DHT22;55412;51.350;17.056;2023-01-29T01:14:59;-0.40;80.40
68433;DHT22;55412;51.350;17.056;2023-01-29T01:17:25;-0.40;80.40
68433;DHT22;55412;51.350;17.056;2023-01-29T01:19:51;-0.40;80.50
68433;DHT22;55412;51.350;17.056;2023-01-29T01:22:17;-0.40;80.40
68433;DHT22;55412;51.350;17.056;2023-01-29T01:24:44;-0.40;80.30
68433;DHT22;55412;51.350;17.056;2023-01-29T01:27:11;-0.40;80.40
68433;DHT22;55412;51.350;17.056;2023-01-29T01:29:37;-0.40;80.20
68433;DHT22;55412;51.350;17.056;2023-01-29T01:32:04;-0.40;80.30
68433;DHT22;55412;51.350;17.056;2023-01-29T01:34:30;-0.40;80.20
68433;DHT22;55412;51.350;17.056;2023-01-29T01:36:56;-0.40;80.30
68433;DHT22;55412;51.350;17.056;2023-01-29T01:39:23;-0.40;80.20
68433;DHT22;55412;51.350;17.056;2023-01-29T01:41:50;-0.50;80.20
68433;DHT22;55412;51.350;17.056;2023-01-29T01:44:53;-0.50;80.20
68433;DHT22;55412;51.350;17.056;2023-01-29T01:47:45;-0.50;80.20
68433;DHT22;55412;51.350;17.056;2023-01-29T01:50:37;-0.50;80.10
68433;DHT22;55412;51.350;17.056;2023-01-29T01:53:24;-0.50;80.10
68433;DHT22;55412;51.350;17.056;2023-01-29T01:55:57;-0.60;80.00
68433;DHT22;55412;51.350;17.056;2023-01-29T01:58:48;-0.60;80.10
68433;DHT22;55412;51.350;17.056;2023-01-29T02:01:21;-0.60;80.10
68433;DHT22;55412;51.350;17.056;2023-01-29T02:04:13;-0.60;80.00
68433;DHT22;55412;51.350;17.056;2023-01-29T02:07:03;-0.70;79.90
68433;DHT22;55412;51.350;17.056;2023-01-29T02:10:11;-0.70;80.00
68433;DHT22;55412;51.350;17.056;2023-01-29T02:12:39;-0.70;80.00
68433;DHT22;55412;51.350;17.056;2023-01-29T02:15:06;-0.70;79.90
68433;DHT22;55412;51.350;17.056;2023-01-29T02:17:32;-0.70;79.90
68433;DHT22;55412;51.350;17.056;2023-01-29T02:31:06;-0.70;80.00
68433;DHT22;55412;51.350;17.056;2023-01-29T02:33:47;-0.70;79.90
68433;DHT22;55412;51.350;17.056;2023-01-29T02:44:59;-0.70;80.00
68433;DHT22;55412;51.350;17.056;2023-01-29T02:53:08;-0.60;79.90
68433;DHT22;55412;51.350;17.056;2023-01-29T02:55:59;-0.60;80.00
68433;DHT22;55412;51.350;17.056;2023-01-29T02:58:43;-0.60;79.90
68433;DHT22;55412;51.350;17.056;2023-01-29T03:01:19;-0.60;80.00
68433;DHT22;55412;51.350;17.056;2023-01-29T03:04:00;-0.60;80.00
68433;DHT22;55412;51.350;17.056;2023-01-29T03:06:32;-0.60;80.00
68433;DHT22;55412;51.350;17.056;2023-01-29T03:09:06;-0.50;80.00
68433;DHT22;55412;51.350;17.056;2023-01-29T03:11:50;-0.60;80.00
68433;DHT22;55412;51.350;17.056;2023-01-29T03:14:28;-0.50;80.00
68433;DHT22;55412;51.350;17.056;2023-01-29T03:17:21;-0.50;79.90
68433;DHT22;55412;51.350;17.056;2023-01-29T03:19:51;-0.50;79.90
68433;DHT22;55412;51.350;17.056;2023-01-29T03:22:18;-0.50;79.90
68433;DHT22;55412;51.350;17.056;2023-01-29T03:24:56;-0.50;79.90
68433;DHT22;55412;51.350;17.056;2023-01-29T03:28:11;-0.50;79.90
68433;DHT22;55412;51.350;17.056;2023-01-29T03:31:04;-0.50;79.90
68433;DHT22;55412;51.350;17.056;2023-01-29T03:33:57;-0.40;79.80
68433;DHT22;55412;51.350;17.056;2023-01-29T03:36:39;-0.40;79.90
68433;DHT22;55412;51.350;17.056;2023-01-29T03:39:12;-0.40;79.80
68433;DHT22;55412;51.350;17.056;2023-01-29T03:45:05;-0.50;79.80
68433;DHT22;55412;51.350;17.056;2023-01-29T03:48:04;-0.40;79.80
68433;DHT22;55412;51.350;17.056;2023-01-29T03:53:29;-0.50;79.80
68433;DHT22;55412;51.350;17.056;2023-01-29T03:56:34;-0.50;79.70
68433;DHT22;55412;51.350;17.056;2023-01-29T04:01:58;-0.50;79.70
68433;DHT22;55412;51.350;17.056;2023-01-29T04:04:37;-0.50;79.70
68433;DHT22;55412;51.350;17.056;2023-01-29T04:07:18;-0.50;79.80
68433;DHT22;55412;51.350;17.056;2023-01-29T04:10:16;-0.50;79.80
68433;DHT22;55412;51.350;17.056;2023-01-29T04:12:51;-0.50;79.70
68433;DHT22;55412;51.350;17.056;2023-01-29T04:15:25;-0.50;79.70
68433;DHT22;55412;51.350;17.056;2023-01-29T04:17:55;-0.50;79.60
68433;DHT22;55412;51.350;17.056;2023-01-29T04:20:22;-0.50;79.70
68433;DHT22;55412;51.350;17.056;2023-01-29T04:22:49;-0.50;79.60
68433;DHT22;55412;51.350;17.056;2023-01-29T04:25:25;-0.50;79.60
68433;DHT22;55412;51.350;17.056;2023-01-29T04:28:06;-0.50;79.60
68433;DHT22;55412;51.350;17.056;2023-01-29T04:33:43;-0.50;79.50
68433;DHT22;55412;51.350;17.056;2023-01-29T04:42:05;-0.50;79.50
68433;DHT22;55412;51.350;17.056;2023-01-29T04:47:56;-0.50;79.50
68433;DHT22;55412;51.350;17.056;2023-01-29T04:50:37;-0.60;79.50
68433;DHT22;55412;51.350;17.056;2023-01-29T04:55:52;-0.60;79.40
68433;DHT22;55412;51.350;17.056;2023-01-29T04:58:46;-0.50;79.40
68433;DHT22;55412;51.350;17.056;2023-01-29T05:01:19;-0.50;79.50
68433;DHT22;55412;51.350;17.056;2023-01-29T05:03:49;-0.60;79.50
68433;DHT22;55412;51.350;17.056;2023-01-29T05:06:17;-0.50;79.50
68433;DHT22;55412;51.350;17.056;2023-01-29T05:08:45;-0.50;79.30
68433;DHT22;55412;51.350;17.056;2023-01-29T05:11:12;-0.50;79.40
68433;DHT22;55412;51.350;17.056;2023-01-29T05:13:40;-0.50;79.30
68433;DHT22;55412;51.350;17.056;2023-01-29T05:16:23;-0.50;79.30
68433;DHT22;55412;51.350;17.056;2023-01-29T05:18:51;-0.50;79.30
68433;DHT22;55412;51.350;17.056;2023-01-29T05:21:18;-0.50;79.30
68433;DHT22;55412;51.350;17.056;2023-01-29T05:23:44;-0.60;79.20
68433;DHT22;55412;51.350;17.056;2023-01-29T05:26:21;-0.60;79.20
68433;DHT22;55412;51.350;17.056;2023-01-29T05:29:06;-0.60;79.20
68433;DHT22;55412;51.350;17.056;2023-01-29T05:31:32;-0.60;79.20
68433;DHT22;55412;51.350;17.056;2023-01-29T05:33:58;-0.60;79.10
68433;DHT22;55412;51.350;17.056;2023-01-29T05:36:24;-0.60;79.10
68433;DHT22;55412;51.350;17.056;2023-01-29T05:38:51;-0.70;79.00
68433;DHT22;55412;51.350;17.056;2023-01-29T05:41:17;-0.70;79.00
68433;DHT22;55412;51.350;17.056;2023-01-29T05:43:43;-0.70;79.00
68433;DHT22;55412;51.350;17.056;2023-01-29T05:46:09;-0.70;78.90
68433;DHT22;55412;51.350;17.056;2023-01-29T05:48:35;-0.80;78.90
68433;DHT22;55412;51.350;17.056;2023-01-29T05:51:04;-0.80;78.80
68433;DHT22;55412;51.350;17.056;2023-01-29T05:53:31;-0.90;78.90
68433;DHT22;55412;51.350;17.056;2023-01-29T05:56:00;-0.90;78.90
68433;DHT22;55412;51.350;17.056;2023-01-29T05:58:27;-0.90;78.70
68433;DHT22;55412;51.350;17.056;2023-01-29T06:00:54;-1.00;78.70
68433;DHT22;55412;51.350;17.056;2023-01-29T06:03:20;-1.00;78.60
68433;DHT22;55412;51.350;17.056;2023-01-29T06:05:46;-1.00;78.60
68433;DHT22;55412;51.350;17.056;2023-01-29T06:08:12;-1.10;78.70
68433;DHT22;55412;51.350;17.056;2023-01-29T06:10:38;-1.10;78.60
68433;DHT22;55412;51.350;17.056;2023-01-29T06:13:04;-1.10;78.60
68433;DHT22;55412;51.350;17.056;2023-01-29T06:15:31;-1.10;78.50
68433;DHT22;55412;51.350;17.056;2023-01-29T06:17:57;-1.20;78.50
68433;DHT22;55412;51.350;17.056;2023-01-29T06:20:23;-1.20;78.50
68433;DHT22;55412;51.350;17.056;2023-01-29T06:22:49;-1.20;78.60
68433;DHT22;55412;51.350;17.056;2023-01-29T06:25:15;-1.20;78.50
68433;DHT22;55412;51.350;17.056;2023-01-29T06:27:41;-1.20;78.50
68433;DHT22;55412;51.350;17.056;2023-01-29T06:30:08;-1.30;78.60
68433;DHT22;55412;51.350;17.056;2023-01-29T06:32:35;-1.30;78.40
68433;DHT22;55412;51.350;17.056;2023-01-29T06:35:01;-1.30;78.50
68433;DHT22;55412;51.350;17.056;2023-01-29T06:37:27;-1.30;78.40
68433;DHT22;55412;51.350;17.056;2023-01-29T06:39:53;-1.30;78.50
68433;DHT22;55412;51.350;17.056;2023-01-29T06:42:19;-1.30;78.60
68433;DHT22;55412;51.350;17.056;2023-01-29T06:44:55;-1.30;78.60
68433;DHT22;55412;51.350;17.056;2023-01-29T06:47:22;-1.30;78.60
68433;DHT22;55412;51.350;17.056;2023-01-29T06:49:49;-1.30;78.50
68433;DHT22;55412;51.350;17.056;2023-01-29T06:52:15;-1.20;78.50
68433;DHT22;55412;51.350;17.056;2023-01-29T06:54:41;-1.20;78.60
68433;DHT22;55412;51.350;17.056;2023-01-29T06:57:07;-1.20;78.60
68433;DHT22;55412;51.350;17.056;2023-01-29T06:59:32;-1.20;78.50
68433;DHT22;55412;51.350;17.056;2023-01-29T07:01:59;-1.20;78.70
68433;DHT22;55412;51.350;17.056;2023-01-29T07:04:24;-1.20;78.60
68433;DHT22;55412;51.350;17.056;2023-01-29T07:06:50;-1.20;78.70
68433;DHT22;55412;51.350;17.056;2023-01-29T07:09:17;-1.20;78.70
68433;DHT22;55412;51.350;17.056;2023-01-29T07:11:43;-1.10;78.70
68433;DHT22;55412;51.350;17.056;2023-01-29T07:14:09;-1.10;78.60
68433;DHT22;55412;51.350;17.056;2023-01-29T07:16:35;-1.10;78.70
68433;DHT22;55412;51.350;17.056;2023-01-29T07:19:01;-1.10;78.70
68433;DHT22;55412;51.350;17.056;2023-01-29T07:21:27;-1.00;78.60
68433;DHT22;55412;51.350;17.056;2023-01-29T07:23:53;-1.00;78.70
68433;DHT22;55412;51.350;17.056;2023-01-29T07:26:20;-1.00;78.70
68433;DHT22;55412;51.350;17.056;2023-01-29T07:28:46;-1.00;78.70
68433;DHT22;55412;51.350;17.056;2023-01-29T07:31:13;-1.00;78.70
68433;DHT22;55412;51.350;17.056;2023-01-29T07:33:41;-0.90;78.70
68433;DHT22;55412;51.350;17.056;2023-01-29T07:36:10;-0.90;78.80
68433;DHT22;55412;51.350;17.056;2023-01-29T07:38:37;-0.90;78.70
68433;DHT22;55412;51.350;17.056;2023-01-29T07:41:03;-0.90;78.80
68433;DHT22;55412;51.350;17.056;2023-01-29T07:43:30;-0.80;78.70
68433;DHT22;55412;51.350;17.056;2023-01-29T07:46:00;-0.80;78.80
68433;DHT22;55412;51.350;17.056;2023-01-29T07:48:27;-0.80;78.80
68433;DHT22;55412;51.350;17.056;2023-01-29T07:50:56;-0.80;78.70
68433;DHT22;55412;51.350;17.056;2023-01-29T07:53:23;-0.80;78.70
68433;DHT22;55412;51.350;17.056;2023-01-29T07:55:50;-0.80;78.80
68433;DHT22;55412;51.350;17.056;2023-01-29T07:58:16;-0.70;78.80
68433;DHT22;55412;51.350;17.056;2023-01-29T08:00:42;-0.70;78.90
68433;DHT22;55412;51.350;17.056;2023-01-29T08:03:14;-0.60;78.80
68433;DHT22;55412;51.350;17.056;2023-01-29T08:05:45;-0.60;78.90
68433;DHT22;55412;51.350;17.056;2023-01-29T08:08:12;-0.50;78.90
68433;DHT22;55412;51.350;17.056;2023-01-29T08:10:39;-0.40;78.90
68433;DHT22;55412;51.350;17.056;2023-01-29T08:13:05;-0.40;78.90
68433;DHT22;55412;51.350;17.056;2023-01-29T08:15:32;-0.30;79.00
68433;DHT22;55412;51.350;17.056;2023-01-29T08:18:00;-0.30;79.00
68433;DHT22;55412;51.350;17.056;2023-01-29T08:20:27;-0.20;78.90
68433;DHT22;55412;51.350;17.056;2023-01-29T08:23:05;-0.10;78.90
68433;DHT22;55412;51.350;17.056;2023-01-29T08:25:34;-0.10;79.00
68433;DHT22;55412;51.350;17.056;2023-01-29T08:28:00;0.00;78.90
68433;DHT22;55412;51.350;17.056;2023-01-29T08:30:28;0.10;79.10
68433;DHT22;55412;51.350;17.056;2023-01-29T08:32:55;0.10;79.10
68433;DHT22;55412;51.350;17.056;2023-01-29T08:35:23;0.20;79.10
68433;DHT22;55412;51.350;17.056;2023-01-29T08:37:53;0.30;79.20
68433;DHT22;55412;51.350;17.056;2023-01-29T08:40:20;0.40;79.10
68433;DHT22;55412;51.350;17.056;2023-01-29T08:42:47;0.50;79.10
68433;DHT22;55412;51.350;17.056;2023-01-29T08:45:13;0.60;79.10
68433;DHT22;55412;51.350;17.056;2023-01-29T08:47:47;0.60;79.10
68433;DHT22;55412;51.350;17.056;2023-01-29T08:50:15;0.70;79.10
68433;DHT22;55412;51.350;17.056;2023-01-29T08:52:42;0.70;79.20
68433;DHT22;55412;51.350;17.056;2023-01-29T08:55:09;0.80;79.00
68433;DHT22;55412;51.350;17.056;2023-01-29T08:57:37;0.80;79.00
68433;DHT22;55412;51.350;17.056;2023-01-29T09:00:05;0.80;78.90
68433;DHT22;55412;51.350;17.056;2023-01-29T09:02:33;0.80;78.90
68433;DHT22;55412;51.350;17.056;2023-01-29T09:04:59;0.80;78.90
68433;DHT22;55412;51.350;17.056;2023-01-29T09:07:25;0.80;78.80
68433;DHT22;55412;51.350;17.056;2023-01-29T09:09:51;0.80;78.80
68433;DHT22;55412;51.350;17.056;2023-01-29T09:12:18;0.90;78.90
68433;DHT22;55412;51.350;17.056;2023-01-29T09:14:46;0.90;78.90
68433;DHT22;55412;51.350;17.056;2023-01-29T09:17:13;1.00;78.90
68433;DHT22;55412;51.350;17.056;2023-01-29T09:19:39;1.10;79.00
68433;DHT22;55412;51.350;17.056;2023-01-29T09:22:05;1.20;79.00
68433;DHT22;55412;51.350;17.056;2023-01-29T09:24:34;1.40;79.20
68433;DHT22;55412;51.350;17.056;2023-01-29T09:27:02;1.50;79.20
68433;DHT22;55412;51.350;17.056;2023-01-29T09:29:29;1.60;79.20
68433;DHT22;55412;51.350;17.056;2023-01-29T09:31:55;1.80;79.20
68433;DHT22;55412;51.350;17.056;2023-01-29T09:34:21;1.90;79.20
68433;DHT22;55412;51.350;17.056;2023-01-29T09:36:47;2.00;79.10
68433;DHT22;55412;51.350;17.056;2023-01-29T09:39:13;2.00;79.10
68433;DHT22;55412;51.350;17.056;2023-01-29T09:47:22;2.20;79.10
68433;DHT22;55412;51.350;17.056;2023-01-29T09:50:02;2.30;79.10
68433;DHT22;55412;51.350;17.056;2023-01-29T09:52:43;2.30;78.90
68433;DHT22;55412;51.350;17.056;2023-01-29T09:55:32;2.30;79.00
68433;DHT22;55412;51.350;17.056;2023-01-29T09:58:54;2.30;79.00
68433;DHT22;55412;51.350;17.056;2023-01-29T10:04:34;2.30;78.80
68433;DHT22;55412;51.350;17.056;2023-01-29T10:07:53;2.30;78.80
68433;DHT22;55412;51.350;17.056;2023-01-29T10:10:43;2.30;78.80
68433;DHT22;55412;51.350;17.056;2023-01-29T10:16:49;2.30;78.70
68433;DHT22;55412;51.350;17.056;2023-01-29T10:19:59;2.30;78.60
68433;DHT22;55412;51.350;17.056;2023-01-29T10:25:14;2.30;78.50
68433;DHT22;55412;51.350;17.056;2023-01-29T10:27:54;2.20;78.50
68433;DHT22;55412;51.350;17.056;2023-01-29T10:30:36;2.20;78.40
68433;DHT22;55412;51.350;17.056;2023-01-29T10:33:08;2.20;78.40
68433;DHT22;55412;51.350;17.056;2023-01-29T10:35:47;2.10;78.30
68433;DHT22;55412;51.350;17.056;2023-01-29T10:38:41;2.10;78.30
68433;DHT22;55412;51.350;17.056;2023-01-29T10:41:18;2.00;78.20
68433;DHT22;55412;51.350;17.056;2023-01-29T10:44:36;2.00;78.30
68433;DHT22;55412;51.350;17.056;2023-01-29T10:50:51;2.00;78.20
68433;DHT22;55412;51.350;17.056;2023-01-29T10:54:15;1.90;78.30
68433;DHT22;55412;51.350;17.056;2023-01-29T10:57:10;1.90;78.20
68433;DHT22;55412;51.350;17.056;2023-01-29T11:00:23;1.90;78.10
68433;DHT22;55412;51.350;17.056;2023-01-29T11:02:51;1.90;78.10
68433;DHT22;55412;51.350;17.056;2023-01-29T11:05:22;1.90;78.10
68433;DHT22;55412;51.350;17.056;2023-01-29T11:08:04;1.90;78.00
68433;DHT22;55412;51.350;17.056;2023-01-29T11:10:39;1.80;78.00
68433;DHT22;55412;51.350;17.056;2023-01-29T11:13:13;1.80;77.90
68433;DHT22;55412;51.350;17.056;2023-01-29T11:15:39;1.80;78.00
68433;DHT22;55412;51.350;17.056;2023-01-29T11:18:09;1.80;77.90
68433;DHT22;55412;51.350;17.056;2023-01-29T11:20:43;1.80;78.00
68433;DHT22;55412;51.350;17.056;2023-01-29T11:23:32;1.80;77.90
68433;DHT22;55412;51.350;17.056;2023-01-29T11:25:59;1.80;78.00
68433;DHT22;55412;51.350;17.056;2023-01-29T11:31:34;1.80;77.90
68433;DHT22;55412;51.350;17.056;2023-01-29T11:34:15;1.80;77.90
68433;DHT22;55412;51.350;17.056;2023-01-29T11:36:44;1.80;77.90
68433;DHT22;55412;51.350;17.056;2023-01-29T11:41:57;1.80;77.80
68433;DHT22;55412;51.350;17.056;2023-01-29T11:44:41;1.80;77.80
68433;DHT22;55412;51.350;17.056;2023-01-29T11:47:25;1.80;77.80
68433;DHT22;55412;51.350;17.056;2023-01-29T11:49:59;1.80;77.70
68433;DHT22;55412;51.350;17.056;2023-01-29T11:52:39;1.80;77.70
68433;DHT22;55412;51.350;17.056;2023-01-29T11:55:25;1.80;77.70
68433;DHT22;55412;51.350;17.056;2023-01-29T11:58:15;1.80;77.70
68433;DHT22;55412;51.350;17.056;2023-01-29T12:00:47;1.70;77.80
68433;DHT22;55412;51.350;17.056;2023-01-29T12:03:15;1.70;77.70
68433;DHT22;55412;51.350;17.056;2023-01-29T12:06:07;1.70;77.70
68433;DHT22;55412;51.350;17.056;2023-01-29T12:08:43;1.70;77.70
68433;DHT22;55412;51.350;17.056;2023-01-29T12:11:23;1.70;77.70
68433;DHT22;55412;51.350;17.056;2023-01-29T12:13:57;1.70;77.70
68433;DHT22;55412;51.350;17.056;2023-01-29T12:16:46;1.70;77.70
68433;DHT22;55412;51.350;17.056;2023-01-29T12:22:43;1.70;77.80
68433;DHT22;55412;51.350;17.056;2023-01-29T12:25:37;1.70;77.80
68433;DHT22;55412;51.350;17.056;2023-01-29T12:28:41;1.70;77.70
68433;DHT22;55412;51.350;17.056;2023-01-29T12:31:32;1.80;77.80
68433;DHT22;55412;51.350;17.056;2023-01-29T12:40:47;1.80;77.80
68433;DHT22;55412;51.350;17.056;2023-01-29T12:43:18;1.80;77.80
68433;DHT22;55412;51.350;17.056;2023-01-29T12:45:51;1.90;77.90
68433;DHT22;55412;51.350;17.056;2023-01-29T12:48:41;1.90;77.80
68433;DHT22;55412;51.350;17.056;2023-01-29T12:51:17;1.90;77.90
68433;DHT22;55412;51.350;17.056;2023-01-29T12:53:56;1.90;77.90
68433;DHT22;55412;51.350;17.056;2023-01-29T12:56:39;2.00;77.90
68433;DHT22;55412;51.350;17.056;2023-01-29T12:59:30;2.00;78.00
68433;DHT22;55412;51.350;17.056;2023-01-29T13:02:17;2.00;77.90
68433;DHT22;55412;51.350;17.056;2023-01-29T13:05:18;2.10;77.90
68433;DHT22;55412;51.350;17.056;2023-01-29T13:08:09;2.10;77.90
68433;DHT22;55412;51.350;17.056;2023-01-29T13:10:50;2.10;77.90
68433;DHT22;55412;51.350;17.056;2023-01-29T13:13:37;2.10;77.80
68433;DHT22;55412;51.350;17.056;2023-01-29T13:16:11;2.20;78.00
68433;DHT22;55412;51.350;17.056;2023-01-29T13:18:46;2.20;77.90
68433;DHT22;55412;51.350;17.056;2023-01-29T13:21:18;2.20;77.90
68433;DHT22;55412;51.350;17.056;2023-01-29T13:23:49;2.20;77.80
68433;DHT22;55412;51.350;17.056;2023-01-29T13:26:18;2.20;77.80
68433;DHT22;55412;51.350;17.056;2023-01-29T13:28:45;2.20;77.80
68433;DHT22;55412;51.350;17.056;2023-01-29T13:31:26;2.20;77.70
68433;DHT22;55412;51.350;17.056;2023-01-29T13:34:34;2.20;77.80
68433;DHT22;55412;51.350;17.056;2023-01-29T13:37:31;2.20;77.70
68433;DHT22;55412;51.350;17.056;2023-01-29T13:40:00;2.20;77.70
68433;DHT22;55412;51.350;17.056;2023-01-29T13:42:46;2.20;77.70
68433;DHT22;55412;51.350;17.056;2023-01-29T13:45:42;2.20;77.70
68433;DHT22;55412;51.350;17.056;2023-01-29T13:48:24;2.20;77.70
68433;DHT22;55412;51.350;17.056;2023-01-29T13:50:54;2.20;77.70
68433;DHT22;55412;51.350;17.056;2023-01-29T13:53:26;2.20;77.70
68433;DHT22;55412;51.350;17.056;2023-01-29T13:55:54;2.20;77.80
68433;DHT22;55412;51.350;17.056;2023-01-29T14:00:59;2.20;77.70
68433;DHT22;55412;51.350;17.056;2023-01-29T14:06:01;2.20;77.70
68433;DHT22;55412;51.350;17.056;2023-01-29T14:13:48;2.20;77.70
68433;DHT22;55412;51.350;17.056;2023-01-29T14:18:47;2.20;77.80
68433;DHT22;55412;51.350;17.056;2023-01-29T14:21:47;2.20;77.60
68433;DHT22;55412;51.350;17.056;2023-01-29T14:24:20;2.20;77.70
68433;DHT22;55412;51.350;17.056;2023-01-29T14:26:48;2.20;77.80
68433;DHT22;55412;51.350;17.056;2023-01-29T14:29:25;2.30;77.70
68433;DHT22;55412;51.350;17.056;2023-01-29T14:34:48;2.30;77.70
68433;DHT22;55412;51.350;17.056;2023-01-29T14:39:54;2.20;77.70
68433;DHT22;55412;51.350;17.056;2023-01-29T14:45:36;2.20;77.80
68433;DHT22;55412;51.350;17.056;2023-01-29T14:58:48;2.20;77.70
68433;DHT22;55412;51.350;17.056;2023-01-29T15:01:22;2.20;77.70
68433;DHT22;55412;51.350;17.056;2023-01-29T15:04:04;2.20;77.70
68433;DHT22;55412;51.350;17.056;2023-01-29T15:06:42;2.20;77.70
68433;DHT22;55412;51.350;17.056;2023-01-29T15:09:45;2.10;77.60
68433;DHT22;55412;51.350;17.056;2023-01-29T15:21:08;2.00;77.70
68433;DHT22;55412;51.350;17.056;2023-01-29T15:23:39;2.00;77.70
68433;DHT22;55412;51.350;17.056;2023-01-29T15:26:09;2.00;77.70
68433;DHT22;55412;51.350;17.056;2023-01-29T15:28:37;2.00;77.70
68433;DHT22;55412;51.350;17.056;2023-01-29T15:31:06;2.00;77.70
68433;DHT22;55412;51.350;17.056;2023-01-29T15:33:40;2.00;77.80
68433;DHT22;55412;51.350;17.056;2023-01-29T15:36:24;2.00;77.70
68433;DHT22;55412;51.350;17.056;2023-01-29T15:41:44;2.00;77.70
68433;DHT22;55412;51.350;17.056;2023-01-29T15:44:15;1.90;77.80
68433;DHT22;55412;51.350;17.056;2023-01-29T15:46:58;1.90;77.60
68433;DHT22;55412;51.350;17.056;2023-01-29T15:49:35;1.90;77.70
68433;DHT22;55412;51.350;17.056;2023-01-29T15:52:29;1.90;77.80
68433;DHT22;55412;51.350;17.056;2023-01-29T15:55:02;1.90;77.70
68433;DHT22;55412;51.350;17.056;2023-01-29T15:57:35;1.90;77.80
68433;DHT22;55412;51.350;17.056;2023-01-29T16:00:06;1.90;77.70
68433;DHT22;55412;51.350;17.056;2023-01-29T16:05:06;1.90;77.70
68433;DHT22;55412;51.350;17.056;2023-01-29T16:07:37;1.90;77.70
68433;DHT22;55412;51.350;17.056;2023-01-29T16:10:04;1.90;77.70
68433;DHT22;55412;51.350;17.056;2023-01-29T16:12:32;1.90;77.70
68433;DHT22;55412;51.350;17.056;2023-01-29T16:15:01;1.90;77.80
68433;DHT22;55412;51.350;17.056;2023-01-29T16:17:32;1.90;77.70
68433;DHT22;55412;51.350;17.056;2023-01-29T16:20:05;1.90;77.70
68433;DHT22;55412;51.350;17.056;2023-01-29T16:22:35;1.90;77.80
68433;DHT22;55412;51.350;17.056;2023-01-29T16:25:09;1.90;77.70
68433;DHT22;55412;51.350;17.056;2023-01-29T16:27:38;1.90;77.70
68433;DHT22;55412;51.350;17.056;2023-01-29T16:30:09;1.90;77.70
68433;DHT22;55412;51.350;17.056;2023-01-29T16:32:39;1.90;77.80
68433;DHT22;55412;51.350;17.056;2023-01-29T16:35:05;1.90;77.70
68433;DHT22;55412;51.350;17.056;2023-01-29T16:37:33;1.90;77.60
68433;DHT22;55412;51.350;17.056;2023-01-29T16:40:15;1.80;77.70
68433;DHT22;55412;51.350;17.056;2023-01-29T16:46:24;1.80;77.70
68433;DHT22;55412;51.350;17.056;2023-01-29T16:48:52;1.80;77.70
68433;DHT22;55412;51.350;17.056;2023-01-29T16:51:38;1.80;77.70
68433;DHT22;55412;51.350;17.056;2023-01-29T16:54:12;1.80;77.70
68433;DHT22;55412;51.350;17.056;2023-01-29T16:56:46;1.70;77.70
68433;DHT22;55412;51.350;17.056;2023-01-29T16:59:44;1.70;77.60
68433;DHT22;55412;51.350;17.056;2023-01-29T17:02:32;1.70;77.70
68433;DHT22;55412;51.350;17.056;2023-01-29T17:05:08;1.60;77.80
68433;DHT22;55412;51.350;17.056;2023-01-29T17:07:35;1.60;77.80
68433;DHT22;55412;51.350;17.056;2023-01-29T17:10:04;1.60;77.70
68433;DHT22;55412;51.350;17.056;2023-01-29T17:12:32;1.60;77.80
68433;DHT22;55412;51.350;17.056;2023-01-29T17:15:04;1.60;77.70
68433;DHT22;55412;51.350;17.056;2023-01-29T17:17:55;1.60;77.70
68433;DHT22;55412;51.350;17.056;2023-01-29T17:20:21;1.50;77.80
68433;DHT22;55412;51.350;17.056;2023-01-29T17:22:48;1.50;77.70
68433;DHT22;55412;51.350;17.056;2023-01-29T17:25:14;1.50;77.80
68433;DHT22;55412;51.350;17.056;2023-01-29T17:27:43;1.60;77.80
68433;DHT22;55412;51.350;17.056;2023-01-29T17:30:18;1.50;77.80
68433;DHT22;55412;51.350;17.056;2023-01-29T17:32:48;1.50;77.80
68433;DHT22;55412;51.350;17.056;2023-01-29T17:35:15;1.50;77.80
68433;DHT22;55412;51.350;17.056;2023-01-29T17:37:42;1.50;77.80
68433;DHT22;55412;51.350;17.056;2023-01-29T17:40:30;1.50;77.70
68433;DHT22;55412;51.350;17.056;2023-01-29T17:43:00;1.50;77.80
68433;DHT22;55412;51.350;17.056;2023-01-29T17:45:26;1.50;77.80
68433;DHT22;55412;51.350;17.056;2023-01-29T17:47:52;1.50;77.80
68433;DHT22;55412;51.350;17.056;2023-01-29T17:50:22;1.50;77.80
68433;DHT22;55412;51.350;17.056;2023-01-29T17:52:50;1.50;77.70
68433;DHT22;55412;51.350;17.056;2023-01-29T17:55:20;1.40;77.80
68433;DHT22;55412;51.350;17.056;2023-01-29T17:57:47;1.50;77.80
68433;DHT22;55412;51.350;17.056;2023-01-29T18:00:15;1.50;77.70
68433;DHT22;55412;51.350;17.056;2023-01-29T18:02:43;1.40;77.80
68433;DHT22;55412;51.350;17.056;2023-01-29T18:05:11;1.40;77.80
68433;DHT22;55412;51.350;17.056;2023-01-29T18:07:39;1.40;77.80
68433;DHT22;55412;51.350;17.056;2023-01-29T18:10:17;1.40;77.60
68433;DHT22;55412;51.350;17.056;2023-01-29T18:12:44;1.40;77.70
68433;DHT22;55412;51.350;17.056;2023-01-29T18:15:11;1.40;77.70
68433;DHT22;55412;51.350;17.056;2023-01-29T18:17:37;1.40;77.70